sensor_id;sensor_type;location;lat;lon;timestamp;temperature;humidity
52941;DHT22;62001;53.366;6.636;2023-10-31T00:00:06;10.40;99.90
52941;DHT22;62001;53.366;6.636;2023-10-31T00:02:32;10.40;99.90
52941;DHT22;62001;53.366;6.636;2023-10-31T00:04:58;10.40;99.90
52941;DHT22;62001;53.366;6.636;2023-10-31T00:07:24;10.40;99.90
52941;DHT22;62001;53.366;6.636;2023-10-31T00:09:50;10.40;99.90
52941;DHT22;62001;53.366;6.636;2023-10-31T00:12:15;10.30;99.90
52941;DHT22;62001;53.366;6.636;2023-10-31T00:14:41;10.40;99.90
52941;DHT22;62001;53.366;6.636;2023-10-31T00:17:07;10.40;99.90
52941;DHT22;62001;53.366;6.636;2023-10-31T00:19:33;10.40;99.90
52941;DHT22;62001;53.366;6.636;2023-10-31T00:21:58;10.30;99.90
52941;DHT22;62001;53.366;6.636;2023-10-31T00:24:24;10.40;99.90
52941;DHT22;62001;53.366;6.636;2023-10-31T00:26:51;10.30;99.90
52941;DHT22;62001;53.366;6.636;2023-10-31T00:29:17;10.30;99.90
52941;DHT22;62001;53.366;6.636;2023-10-31T00:31:43;10.40;99.90
52941;DHT22;62001;53.366;6.636;2023-10-31T00:34:09;10.30;99.90
52941;DHT22;62001;53.366;6.636;2023-10-31T00:36:35;10.30;99.90
52941;DHT22;62001;53.366;6.636;2023-10-31T00:39:01;10.30;99.90
52941;DHT22;62001;53.366;6.636;2023-10-31T00:41:27;10.40;99.90
52941;DHT22;62001;53.366;6.636;2023-10-31T00:43:53;10.30;99.90
52941;DHT22;62001;53.366;6.636;2023-10-31T00:46:19;10.30;99.90
52941;DHT22;62001;53.366;6.636;2023-10-31T00:48:44;10.30;99.90
52941;DHT22;62001;53.366;6.636;2023-10-31T00:51:10;10.30;99.90
52941;DHT22;62001;53.366;6.636;2023-10-31T00:53:36;10.30;99.90
52941;DHT22;62001;53.366;6.636;2023-10-31T00:56:03;10.30;99.90
52941;DHT22;62001;53.366;6.636;2023-10-31T00:58:29;10.30;99.90
52941;DHT22;62001;53.366;6.636;2023-10-31T01:00:55;10.30;99.90
52941;DHT22;62001;53.366;6.636;2023-10-31T01:03:20;10.30;99.90
52941;DHT22;62001;53.366;6.636;2023-10-31T01:05:46;10.30;99.90
52941;DHT22;62001;53.366;6.636;2023-10-31T01:08:12;10.40;99.90
52941;DHT22;62001;53.366;6.636;2023-10-31T01:10:38;10.30;99.90
52941;DHT22;62001;53.366;6.636;2023-10-31T01:13:04;10.40;99.90
52941;DHT22;62001;53.366;6.636;2023-10-31T01:15:29;10.40;99.90
52941;DHT22;62001;53.366;6.636;2023-10-31T01:17:55;10.40;99.90
52941;DHT22;62001;53.366;6.636;2023-10-31T01:20:21;10.40;99.90
52941;DHT22;62001;53.366;6.636;2023-10-31T01:22:47;10.30;99.90
52941;DHT22;62001;53.366;6.636;2023-10-31T01:25:13;10.30;99.90
52941;DHT22;62001;53.366;6.636;2023-10-31T01:27:39;10.30;99.90
52941;DHT22;62001;53.366;6.636;2023-10-31T01:30:05;10.30;99.90
52941;DHT22;62001;53.366;6.636;2023-10-31T01:32:31;10.30;99.90
52941;DHT22;62001;53.366;6.636;2023-10-31T01:34:56;10.30;99.90
52941;DHT22;62001;53.366;6.636;2023-10-31T01:37:22;10.30;99.90
52941;DHT22;62001;53.366;6.636;2023-10-31T01:39:48;10.30;99.90
52941;DHT22;62001;53.366;6.636;2023-10-31T01:42:14;10.30;99.90
52941;DHT22;62001;53.366;6.636;2023-10-31T01:44:41;10.40;99.90
52941;DHT22;62001;53.366;6.636;2023-10-31T01:47:06;10.30;99.90
52941;DHT22;62001;53.366;6.636;2023-10-31T01:49:32;10.40;99.90
52941;DHT22;62001;53.366;6.636;2023-10-31T01:52:03;10.40;99.90
52941;DHT22;62001;53.366;6.636;2023-10-31T01:54:29;10.40;99.90
52941;DHT22;62001;53.366;6.636;2023-10-31T01:56:57;10.40;99.90
52941;DHT22;62001;53.366;6.636;2023-10-31T01:59:26;10.40;99.90
52941;DHT22;62001;53.366;6.636;2023-10-31T02:01:52;10.30;99.90
52941;DHT22;62001;53.366;6.636;2023-10-31T02:04:19;10.30;99.90
52941;DHT22;62001;53.366;6.636;2023-10-31T02:06:45;10.30;99.90
52941;DHT22;62001;53.366;6.636;2023-10-31T02:09:11;10.30;99.90
52941;DHT22;62001;53.366;6.636;2023-10-31T02:11:37;10.30;99.90
52941;DHT22;62001;53.366;6.636;2023-10-31T02:14:03;10.30;99.90
52941;DHT22;62001;53.366;6.636;2023-10-31T02:16:29;10.30;99.90
52941;DHT22;62001;53.366;6.636;2023-10-31T02:18:55;10.30;99.90
52941;DHT22;62001;53.366;6.636;2023-10-31T02:21:21;10.30;99.90
52941;DHT22;62001;53.366;6.636;2023-10-31T02:24:01;10.30;99.90
52941;DHT22;62001;53.366;6.636;2023-10-31T02:26:34;10.30;99.90
52941;DHT22;62001;53.366;6.636;2023-10-31T02:29:00;10.30;99.90
52941;DHT22;62001;53.366;6.636;2023-10-31T02:31:27;10.30;99.90
52941;DHT22;62001;53.366;6.636;2023-10-31T02:33:53;10.30;99.90
52941;DHT22;62001;53.366;6.636;2023-10-31T02:36:19;10.30;99.90
52941;DHT22;62001;53.366;6.636;2023-10-31T02:38:46;10.30;99.90
52941;DHT22;62001;53.366;6.636;2023-10-31T02:41:12;10.30;99.90
52941;DHT22;62001;53.366;6.636;2023-10-31T02:43:39;10.30;99.90
52941;DHT22;62001;53.366;6.636;2023-10-31T02:46:05;10.30;99.90
52941;DHT22;62001;53.366;6.636;2023-10-31T02:48:31;10.30;99.90
52941;DHT22;62001;53.366;6.636;2023-10-31T02:51:04;10.30;99.90
52941;DHT22;62001;53.366;6.636;2023-10-31T02:53:30;10.30;99.90
52941;DHT22;62001;53.366;6.636;2023-10-31T02:55:56;10.20;99.90
52941;DHT22;62001;53.366;6.636;2023-10-31T02:58:21;10.20;99.90
52941;DHT22;62001;53.366;6.636;2023-10-31T03:00:47;10.20;99.90
52941;DHT22;62001;53.366;6.636;2023-10-31T03:03:13;10.20;99.90
52941;DHT22;62001;53.366;6.636;2023-10-31T03:05:39;10.20;99.90
52941;DHT22;62001;53.366;6.636;2023-10-31T03:08:05;10.10;99.90
52941;DHT22;62001;53.366;6.636;2023-10-31T03:10:33;10.10;99.90
52941;DHT22;62001;53.366;6.636;2023-10-31T03:12:58;10.20;99.90
52941;DHT22;62001;53.366;6.636;2023-10-31T03:15:24;10.20;99.90
52941;DHT22;62001;53.366;6.636;2023-10-31T03:17:50;10.20;99.90
52941;DHT22;62001;53.366;6.636;2023-10-31T03:20:16;10.20;99.90
52941;DHT22;62001;53.366;6.636;2023-10-31T03:22:42;10.20;99.90
52941;DHT22;62001;53.366;6.636;2023-10-31T03:25:08;10.20;99.90
52941;DHT22;62001;53.366;6.636;2023-10-31T03:27:34;10.20;99.90
52941;DHT22;62001;53.366;6.636;2023-10-31T03:29:59;10.20;99.90
52941;DHT22;62001;53.366;6.636;2023-10-31T03:32:25;10.30;99.90
52941;DHT22;62001;53.366;6.636;2023-10-31T03:34:52;10.20;99.90
52941;DHT22;62001;53.366;6.636;2023-10-31T03:37:17;10.20;99.90
52941;DHT22;62001;53.366;6.636;2023-10-31T03:39:43;10.30;99.90
52941;DHT22;62001;53.366;6.636;2023-10-31T03:42:09;10.30;99.90
52941;DHT22;62001;53.366;6.636;2023-10-31T03:44:35;10.30;99.90
52941;DHT22;62001;53.366;6.636;2023-10-31T03:47:01;10.30;99.90
52941;DHT22;62001;53.366;6.636;2023-10-31T03:49:27;10.30;99.90
52941;DHT22;62001;53.366;6.636;2023-10-31T03:51:53;10.30;99.90
52941;DHT22;62001;53.366;6.636;2023-10-31T03:54:19;10.40;99.90
52941;DHT22;62001;53.366;6.636;2023-10-31T03:56:45;10.40;99.90
52941;DHT22;62001;53.366;6.636;2023-10-31T03:59:10;10.40;99.90
52941;DHT22;62001;53.366;6.636;2023-10-31T04:01:36;10.40;99.90
52941;DHT22;62001;53.366;6.636;2023-10-31T04:04:02;10.40;99.90
52941;DHT22;62001;53.366;6.636;2023-10-31T04:06:28;10.40;99.90
52941;DHT22;62001;53.366;6.636;2023-10-31T04:08:54;10.40;99.90
52941;DHT22;62001;53.366;6.636;2023-10-31T04:11:20;10.40;99.90
52941;DHT22;62001;53.366;6.636;2023-10-31T04:13:46;10.40;99.90
52941;DHT22;62001;53.366;6.636;2023-10-31T04:16:11;10.30;99.90
52941;DHT22;62001;53.366;6.636;2023-10-31T04:18:37;10.30;99.90
52941;DHT22;62001;53.366;6.636;2023-10-31T04:21:03;10.30;99.90
52941;DHT22;62001;53.366;6.636;2023-10-31T04:23:29;10.30;99.90
52941;DHT22;62001;53.366;6.636;2023-10-31T04:25:55;10.30;99.90
52941;DHT22;62001;53.366;6.636;2023-10-31T04:28:21;10.30;99.90
52941;DHT22;62001;53.366;6.636;2023-10-31T04:30:47;10.30;99.90
52941;DHT22;62001;53.366;6.636;2023-10-31T04:33:12;10.30;99.90
52941;DHT22;62001;53.366;6.636;2023-10-31T04:35:38;10.30;99.90
52941;DHT22;62001;53.366;6.636;2023-10-31T04:38:04;10.30;99.90
52941;DHT22;62001;53.366;6.636;2023-10-31T04:40:30;10.30;99.90
52941;DHT22;62001;53.366;6.636;2023-10-31T04:42:55;10.40;99.90
52941;DHT22;62001;53.366;6.636;2023-10-31T04:45:21;10.40;99.90
52941;DHT22;62001;53.366;6.636;2023-10-31T04:47:47;10.30;99.90
52941;DHT22;62001;53.366;6.636;2023-10-31T04:50:13;10.30;99.90
52941;DHT22;62001;53.366;6.636;2023-10-31T04:52:39;10.40;99.90
52941;DHT22;62001;53.366;6.636;2023-10-31T04:55:05;10.40;99.90
52941;DHT22;62001;53.366;6.636;2023-10-31T04:57:31;10.40;99.90
52941;DHT22;62001;53.366;6.636;2023-10-31T04:59:57;10.30;99.90
52941;DHT22;62001;53.366;6.636;2023-10-31T05:02:24;10.30;99.90
52941;DHT22;62001;53.366;6.636;2023-10-31T05:04:50;10.30;99.90
52941;DHT22;62001;53.366;6.636;2023-10-31T05:07:17;10.30;99.90
52941;DHT22;62001;53.366;6.636;2023-10-31T05:09:43;10.30;99.90
52941;DHT22;62001;53.366;6.636;2023-10-31T05:12:08;10.20;99.90
52941;DHT22;62001;53.366;6.636;2023-10-31T05:14:35;10.20;99.90
52941;DHT22;62001;53.366;6.636;2023-10-31T05:17:01;10.20;99.90
52941;DHT22;62001;53.366;6.636;2023-10-31T05:19:26;10.20;99.90
52941;DHT22;62001;53.366;6.636;2023-10-31T05:21:52;10.20;99.90
52941;DHT22;62001;53.366;6.636;2023-10-31T05:24:18;10.20;99.90
52941;DHT22;62001;53.366;6.636;2023-10-31T05:26:44;10.20;99.90
52941;DHT22;62001;53.366;6.636;2023-10-31T05:29:13;10.20;99.90
52941;DHT22;62001;53.366;6.636;2023-10-31T05:31:39;10.20;99.90
52941;DHT22;62001;53.366;6.636;2023-10-31T05:34:07;10.20;99.90
52941;DHT22;62001;53.366;6.636;2023-10-31T05:36:33;10.20;99.90
52941;DHT22;62001;53.366;6.636;2023-10-31T05:38:59;10.20;99.90
52941;DHT22;62001;53.366;6.636;2023-10-31T05:41:24;10.20;99.90
52941;DHT22;62001;53.366;6.636;2023-10-31T05:43:50;10.20;99.90
52941;DHT22;62001;53.366;6.636;2023-10-31T05:46:16;10.20;99.90
52941;DHT22;62001;53.366;6.636;2023-10-31T05:48:44;10.20;99.90
52941;DHT22;62001;53.366;6.636;2023-10-31T05:51:15;10.20;99.90
52941;DHT22;62001;53.366;6.636;2023-10-31T05:53:42;10.20;99.90
52941;DHT22;62001;53.366;6.636;2023-10-31T05:56:09;10.20;99.90
52941;DHT22;62001;53.366;6.636;2023-10-31T05:58:37;10.20;99.90
52941;DHT22;62001;53.366;6.636;2023-10-31T06:01:03;10.30;99.90
52941;DHT22;62001;53.366;6.636;2023-10-31T06:03:29;10.30;99.90
52941;DHT22;62001;53.366;6.636;2023-10-31T06:05:54;10.30;99.90
52941;DHT22;62001;53.366;6.636;2023-10-31T06:08:20;10.30;99.90
52941;DHT22;62001;53.366;6.636;2023-10-31T06:10:46;10.30;99.90
52941;DHT22;62001;53.366;6.636;2023-10-31T06:13:12;10.30;99.90
52941;DHT22;62001;53.366;6.636;2023-10-31T06:15:38;10.40;99.90
52941;DHT22;62001;53.366;6.636;2023-10-31T06:18:04;10.30;99.90
52941;DHT22;62001;53.366;6.636;2023-10-31T06:20:29;10.40;99.90
52941;DHT22;62001;53.366;6.636;2023-10-31T06:22:55;10.40;99.90
52941;DHT22;62001;53.366;6.636;2023-10-31T06:25:21;10.40;99.90
52941;DHT22;62001;53.366;6.636;2023-10-31T06:27:47;10.40;99.90
52941;DHT22;62001;53.366;6.636;2023-10-31T06:30:12;10.40;99.90
52941;DHT22;62001;53.366;6.636;2023-10-31T06:32:39;10.40;99.90
52941;DHT22;62001;53.366;6.636;2023-10-31T06:35:06;10.40;99.90
52941;DHT22;62001;53.366;6.636;2023-10-31T06:37:32;10.40;99.90
52941;DHT22;62001;53.366;6.636;2023-10-31T06:39:58;10.40;99.90
52941;DHT22;62001;53.366;6.636;2023-10-31T06:42:24;10.40;99.90
52941;DHT22;62001;53.366;6.636;2023-10-31T06:44:50;10.40;99.90
52941;DHT22;62001;53.366;6.636;2023-10-31T06:47:15;10.40;99.90
52941;DHT22;62001;53.366;6.636;2023-10-31T06:49:41;10.40;99.90
52941;DHT22;62001;53.366;6.636;2023-10-31T06:52:07;10.40;99.90
52941;DHT22;62001;53.366;6.636;2023-10-31T06:54:33;10.40;99.90
52941;DHT22;62001;53.366;6.636;2023-10-31T06:57:00;10.40;99.90
52941;DHT22;62001;53.366;6.636;2023-10-31T06:59:27;10.40;99.90
52941;DHT22;62001;53.366;6.636;2023-10-31T07:01:54;10.40;99.90
52941;DHT22;62001;53.366;6.636;2023-10-31T07:04:20;10.40;99.90
52941;DHT22;62001;53.366;6.636;2023-10-31T07:06:46;10.40;99.90
52941;DHT22;62001;53.366;6.636;2023-10-31T07:09:12;10.40;99.90
52941;DHT22;62001;53.366;6.636;2023-10-31T07:11:38;10.50;99.90
52941;DHT22;62001;53.366;6.636;2023-10-31T07:14:04;10.50;99.90
52941;DHT22;62001;53.366;6.636;2023-10-31T07:16:31;10.40;99.90
52941;DHT22;62001;53.366;6.636;2023-10-31T07:18:57;10.50;99.90
52941;DHT22;62001;53.366;6.636;2023-10-31T07:21:23;10.50;99.90
52941;DHT22;62001;53.366;6.636;2023-10-31T07:23:49;10.50;99.90
52941;DHT22;62001;53.366;6.636;2023-10-31T07:26:15;10.50;99.90
52941;DHT22;62001;53.366;6.636;2023-10-31T07:28:41;10.50;99.90
52941;DHT22;62001;53.366;6.636;2023-10-31T07:31:07;10.50;99.90
52941;DHT22;62001;53.366;6.636;2023-10-31T07:33:32;10.50;99.90
52941;DHT22;62001;53.366;6.636;2023-10-31T07:35:58;10.50;99.90
52941;DHT22;62001;53.366;6.636;2023-10-31T07:38:24;10.50;99.90
52941;DHT22;62001;53.366;6.636;2023-10-31T07:40:50;10.50;99.90
52941;DHT22;62001;53.366;6.636;2023-10-31T07:43:16;10.60;99.90
52941;DHT22;62001;53.366;6.636;2023-10-31T07:45:42;10.60;99.90
52941;DHT22;62001;53.366;6.636;2023-10-31T07:48:08;10.60;99.90
52941;DHT22;62001;53.366;6.636;2023-10-31T07:50:34;10.60;99.90
52941;DHT22;62001;53.366;6.636;2023-10-31T07:53:00;10.70;99.90
52941;DHT22;62001;53.366;6.636;2023-10-31T07:55:26;10.70;99.90
52941;DHT22;62001;53.366;6.636;2023-10-31T07:57:52;10.70;99.90
52941;DHT22;62001;53.366;6.636;2023-10-31T08:00:18;10.80;99.90
52941;DHT22;62001;53.366;6.636;2023-10-31T08:02:44;10.80;99.90
52941;DHT22;62001;53.366;6.636;2023-10-31T08:05:10;10.90;99.90
52941;DHT22;62001;53.366;6.636;2023-10-31T08:07:36;10.90;99.90
52941;DHT22;62001;53.366;6.636;2023-10-31T08:10:03;10.90;99.90
52941;DHT22;62001;53.366;6.636;2023-10-31T08:12:29;11.00;99.90
52941;DHT22;62001;53.366;6.636;2023-10-31T08:14:55;11.00;99.90
52941;DHT22;62001;53.366;6.636;2023-10-31T08:17:21;11.10;99.90
52941;DHT22;62001;53.366;6.636;2023-10-31T08:19:47;11.10;99.90
52941;DHT22;62001;53.366;6.636;2023-10-31T08:22:16;11.10;99.90
52941;DHT22;62001;53.366;6.636;2023-10-31T08:24:42;11.20;99.90
52941;DHT22;62001;53.366;6.636;2023-10-31T08:27:08;11.20;99.90
52941;DHT22;62001;53.366;6.636;2023-10-31T08:29:33;11.30;99.90
52941;DHT22;62001;53.366;6.636;2023-10-31T08:31:59;11.30;99.90
52941;DHT22;62001;53.366;6.636;2023-10-31T08:34:25;11.40;99.90
52941;DHT22;62001;53.366;6.636;2023-10-31T08:36:51;11.50;99.90
52941;DHT22;62001;53.366;6.636;2023-10-31T08:39:18;11.60;99.90
52941;DHT22;62001;53.366;6.636;2023-10-31T08:41:54;11.80;99.90
52941;DHT22;62001;53.366;6.636;2023-10-31T08:44:20;11.80;99.90
52941;DHT22;62001;53.366;6.636;2023-10-31T08:46:46;11.70;99.90
52941;DHT22;62001;53.366;6.636;2023-10-31T08:49:13;11.60;99.90
52941;DHT22;62001;53.366;6.636;2023-10-31T08:51:39;11.50;99.90
52941;DHT22;62001;53.366;6.636;2023-10-31T08:54:05;11.40;99.90
52941;DHT22;62001;53.366;6.636;2023-10-31T08:56:31;11.30;99.90
52941;DHT22;62001;53.366;6.636;2023-10-31T08:58:57;11.20;99.90
52941;DHT22;62001;53.366;6.636;2023-10-31T09:01:23;11.20;99.90
52941;DHT22;62001;53.366;6.636;2023-10-31T09:03:49;11.10;99.90
52941;DHT22;62001;53.366;6.636;2023-10-31T09:06:15;11.10;99.90
52941;DHT22;62001;53.366;6.636;2023-10-31T09:08:40;11.10;99.90
52941;DHT22;62001;53.366;6.636;2023-10-31T09:11:06;11.10;99.90
52941;DHT22;62001;53.366;6.636;2023-10-31T09:13:32;11.10;99.90
52941;DHT22;62001;53.366;6.636;2023-10-31T09:15:59;11.00;99.90
52941;DHT22;62001;53.366;6.636;2023-10-31T09:18:25;11.00;99.90
52941;DHT22;62001;53.366;6.636;2023-10-31T09:20:52;10.90;99.90
52941;DHT22;62001;53.366;6.636;2023-10-31T09:23:18;10.90;99.90
52941;DHT22;62001;53.366;6.636;2023-10-31T09:25:44;10.80;99.90
52941;DHT22;62001;53.366;6.636;2023-10-31T09:28:10;10.90;99.90
52941;DHT22;62001;53.366;6.636;2023-10-31T09:30:36;10.90;99.90
52941;DHT22;62001;53.366;6.636;2023-10-31T09:33:02;10.90;99.90
52941;DHT22;62001;53.366;6.636;2023-10-31T09:35:28;10.90;99.90
52941;DHT22;62001;53.366;6.636;2023-10-31T09:37:54;11.00;99.90
52941;DHT22;62001;53.366;6.636;2023-10-31T09:40:21;11.00;99.90
52941;DHT22;62001;53.366;6.636;2023-10-31T09:42:47;11.10;99.90
52941;DHT22;62001;53.366;6.636;2023-10-31T09:45:15;11.10;99.90
52941;DHT22;62001;53.366;6.636;2023-10-31T09:47:41;11.10;99.90
52941;DHT22;62001;53.366;6.636;2023-10-31T09:50:10;11.10;99.90
52941;DHT22;62001;53.366;6.636;2023-10-31T09:52:37;11.10;99.90
52941;DHT22;62001;53.366;6.636;2023-10-31T09:55:04;11.20;99.90
52941;DHT22;62001;53.366;6.636;2023-10-31T09:57:31;11.30;99.90
52941;DHT22;62001;53.366;6.636;2023-10-31T09:59:57;11.30;99.90
52941;DHT22;62001;53.366;6.636;2023-10-31T10:02:23;11.30;99.90
52941;DHT22;62001;53.366;6.636;2023-10-31T10:04:49;11.30;99.90
52941;DHT22;62001;53.366;6.636;2023-10-31T10:07:16;11.40;99.90
52941;DHT22;62001;53.366;6.636;2023-10-31T10:09:43;11.50;99.90
52941;DHT22;62001;53.366;6.636;2023-10-31T10:12:12;11.60;99.90
52941;DHT22;62001;53.366;6.636;2023-10-31T10:14:39;11.60;99.90
52941;DHT22;62001;53.366;6.636;2023-10-31T10:17:15;11.60;99.90
52941;DHT22;62001;53.366;6.636;2023-10-31T10:19:41;11.60;99.90
52941;DHT22;62001;53.366;6.636;2023-10-31T10:22:07;11.50;99.90
52941;DHT22;62001;53.366;6.636;2023-10-31T10:24:34;11.60;99.90
52941;DHT22;62001;53.366;6.636;2023-10-31T10:26:59;11.60;99.90
52941;DHT22;62001;53.366;6.636;2023-10-31T10:29:25;11.50;99.90
52941;DHT22;62001;53.366;6.636;2023-10-31T10:31:52;11.40;99.90
52941;DHT22;62001;53.366;6.636;2023-10-31T10:34:18;11.40;99.90
52941;DHT22;62001;53.366;6.636;2023-10-31T10:36:48;11.50;99.90
52941;DHT22;62001;53.366;6.636;2023-10-31T10:39:20;11.60;99.90
52941;DHT22;62001;53.366;6.636;2023-10-31T10:41:56;11.50;99.90
52941;DHT22;62001;53.366;6.636;2023-10-31T10:46:55;11.50;99.90
52941;DHT22;62001;53.366;6.636;2023-10-31T10:49:24;11.40;99.90
52941;DHT22;62001;53.366;6.636;2023-10-31T10:51:58;11.40;99.90
52941;DHT22;62001;53.366;6.636;2023-10-31T10:57:20;11.50;99.90
52941;DHT22;62001;53.366;6.636;2023-10-31T10:59:49;11.40;99.90
52941;DHT22;62001;53.366;6.636;2023-10-31T11:02:18;11.40;99.90
52941;DHT22;62001;53.366;6.636;2023-10-31T11:04:45;11.30;99.90
52941;DHT22;62001;53.366;6.636;2023-10-31T11:07:12;11.20;99.90
52941;DHT22;62001;53.366;6.636;2023-10-31T11:09:39;11.20;99.90
52941;DHT22;62001;53.366;6.636;2023-10-31T11:12:07;11.30;99.90
52941;DHT22;62001;53.366;6.636;2023-10-31T11:14:34;11.40;99.90
52941;DHT22;62001;53.366;6.636;2023-10-31T11:17:06;11.40;99.90
52941;DHT22;62001;53.366;6.636;2023-10-31T11:19:36;11.60;99.90
52941;DHT22;62001;53.366;6.636;2023-10-31T11:22:11;11.80;99.90
52941;DHT22;62001;53.366;6.636;2023-10-31T11:24:37;12.00;99.90
52941;DHT22;62001;53.366;6.636;2023-10-31T11:27:05;12.10;99.90
52941;DHT22;62001;53.366;6.636;2023-10-31T11:29:31;12.00;99.90
52941;DHT22;62001;53.366;6.636;2023-10-31T11:31:57;11.90;99.90
52941;DHT22;62001;53.366;6.636;2023-10-31T11:34:26;11.80;99.90
52941;DHT22;62001;53.366;6.636;2023-10-31T11:36:52;11.70;99.90
52941;DHT22;62001;53.366;6.636;2023-10-31T11:39:20;11.70;99.90
52941;DHT22;62001;53.366;6.636;2023-10-31T11:41:54;11.80;99.90
52941;DHT22;62001;53.366;6.636;2023-10-31T11:44:25;11.90;99.90
52941;DHT22;62001;53.366;6.636;2023-10-31T11:46:52;12.00;99.90
52941;DHT22;62001;53.366;6.636;2023-10-31T11:49:45;12.00;99.90
52941;DHT22;62001;53.366;6.636;2023-10-31T11:52:15;12.10;99.90
52941;DHT22;62001;53.366;6.636;2023-10-31T11:54:41;12.20;99.90
52941;DHT22;62001;53.366;6.636;2023-10-31T11:57:07;12.30;99.90
52941;DHT22;62001;53.366;6.636;2023-10-31T11:59:39;12.20;99.90
52941;DHT22;62001;53.366;6.636;2023-10-31T12:02:15;12.20;99.90
52941;DHT22;62001;53.366;6.636;2023-10-31T12:04:41;12.00;99.90
52941;DHT22;62001;53.366;6.636;2023-10-31T12:07:08;11.90;99.90
52941;DHT22;62001;53.366;6.636;2023-10-31T12:09:46;11.70;99.90
52941;DHT22;62001;53.366;6.636;2023-10-31T12:12:12;11.60;99.90
52941;DHT22;62001;53.366;6.636;2023-10-31T12:14:38;11.60;99.90
52941;DHT22;62001;53.366;6.636;2023-10-31T12:17:05;11.50;99.90
52941;DHT22;62001;53.366;6.636;2023-10-31T12:19:33;11.40;99.90
52941;DHT22;62001;53.366;6.636;2023-10-31T12:21:58;11.40;99.90
52941;DHT22;62001;53.366;6.636;2023-10-31T12:24:24;11.30;99.90
52941;DHT22;62001;53.366;6.636;2023-10-31T12:26:50;11.30;99.90
52941;DHT22;62001;53.366;6.636;2023-10-31T12:29:18;11.30;99.90
52941;DHT22;62001;53.366;6.636;2023-10-31T12:31:47;11.20;99.90
52941;DHT22;62001;53.366;6.636;2023-10-31T12:34:17;11.30;99.90
52941;DHT22;62001;53.366;6.636;2023-10-31T12:36:46;11.20;99.90
52941;DHT22;62001;53.366;6.636;2023-10-31T12:39:13;11.20;99.90
52941;DHT22;62001;53.366;6.636;2023-10-31T12:41:40;11.20;99.90
52941;DHT22;62001;53.366;6.636;2023-10-31T12:44:07;11.20;99.90
52941;DHT22;62001;53.366;6.636;2023-10-31T12:46:39;11.30;99.90
52941;DHT22;62001;53.366;6.636;2023-10-31T12:49:20;11.30;99.90
52941;DHT22;62001;53.366;6.636;2023-10-31T12:54:32;11.20;99.90
52941;DHT22;62001;53.366;6.636;2023-10-31T12:57:04;11.10;99.90
52941;DHT22;62001;53.366;6.636;2023-10-31T12:59:35;11.20;99.90
52941;DHT22;62001;53.366;6.636;2023-10-31T13:02:02;11.20;99.90
52941;DHT22;62001;53.366;6.636;2023-10-31T13:04:30;11.30;99.90
52941;DHT22;62001;53.366;6.636;2023-10-31T13:07:01;11.30;99.90
52941;DHT22;62001;53.366;6.636;2023-10-31T13:09:35;11.30;99.90
52941;DHT22;62001;53.366;6.636;2023-10-31T13:12:05;11.30;99.90
52941;DHT22;62001;53.366;6.636;2023-10-31T13:14:31;11.20;99.90
52941;DHT22;62001;53.366;6.636;2023-10-31T13:16:58;11.10;99.90
52941;DHT22;62001;53.366;6.636;2023-10-31T13:19:24;10.90;99.90
52941;DHT22;62001;53.366;6.636;2023-10-31T13:21:50;10.80;99.90
52941;DHT22;62001;53.366;6.636;2023-10-31T13:24:16;10.70;99.90
52941;DHT22;62001;53.366;6.636;2023-10-31T13:26:43;10.70;99.90
52941;DHT22;62001;53.366;6.636;2023-10-31T13:29:10;10.80;99.90
52941;DHT22;62001;53.366;6.636;2023-10-31T13:31:37;10.80;99.90
52941;DHT22;62001;53.366;6.636;2023-10-31T13:34:03;10.90;99.90
52941;DHT22;62001;53.366;6.636;2023-10-31T13:36:29;10.90;99.90
52941;DHT22;62001;53.366;6.636;2023-10-31T13:38:55;10.90;99.90
52941;DHT22;62001;53.366;6.636;2023-10-31T13:41:21;10.90;99.90
52941;DHT22;62001;53.366;6.636;2023-10-31T13:43:47;10.90;99.90
52941;DHT22;62001;53.366;6.636;2023-10-31T13:46:14;10.80;99.90
52941;DHT22;62001;53.366;6.636;2023-10-31T13:48:40;10.80;99.90
52941;DHT22;62001;53.366;6.636;2023-10-31T13:51:06;10.80;99.90
52941;DHT22;62001;53.366;6.636;2023-10-31T13:53:32;10.80;99.90
52941;DHT22;62001;53.366;6.636;2023-10-31T13:55:58;10.80;99.90
52941;DHT22;62001;53.366;6.636;2023-10-31T13:58:23;10.80;99.90
52941;DHT22;62001;53.366;6.636;2023-10-31T14:00:50;10.80;99.90
52941;DHT22;62001;53.366;6.636;2023-10-31T14:03:16;10.70;99.90
52941;DHT22;62001;53.366;6.636;2023-10-31T14:05:42;10.60;99.90
52941;DHT22;62001;53.366;6.636;2023-10-31T14:08:07;10.60;99.90
52941;DHT22;62001;53.366;6.636;2023-10-31T14:10:34;10.50;99.90
52941;DHT22;62001;53.366;6.636;2023-10-31T14:13:00;10.60;99.90
52941;DHT22;62001;53.366;6.636;2023-10-31T14:15:25;10.50;99.90
52941;DHT22;62001;53.366;6.636;2023-10-31T14:17:51;10.50;99.90
52941;DHT22;62001;53.366;6.636;2023-10-31T14:20:18;10.40;99.90
52941;DHT22;62001;53.366;6.636;2023-10-31T14:22:50;10.50;99.90
52941;DHT22;62001;53.366;6.636;2023-10-31T14:25:16;10.60;99.90
52941;DHT22;62001;53.366;6.636;2023-10-31T14:27:42;10.60;99.90
52941;DHT22;62001;53.366;6.636;2023-10-31T14:30:12;10.60;99.90
52941;DHT22;62001;53.366;6.636;2023-10-31T14:32:39;10.60;99.90
52941;DHT22;62001;53.366;6.636;2023-10-31T14:35:05;10.60;99.90
52941;DHT22;62001;53.366;6.636;2023-10-31T14:37:32;10.70;99.90
52941;DHT22;62001;53.366;6.636;2023-10-31T14:39:58;10.70;99.90
52941;DHT22;62001;53.366;6.636;2023-10-31T14:42:23;10.70;99.90
52941;DHT22;62001;53.366;6.636;2023-10-31T14:44:49;10.70;99.90
52941;DHT22;62001;53.366;6.636;2023-10-31T14:47:15;10.60;99.90
52941;DHT22;62001;53.366;6.636;2023-10-31T14:49:41;10.60;99.90
52941;DHT22;62001;53.366;6.636;2023-10-31T14:52:06;10.60;99.90
52941;DHT22;62001;53.366;6.636;2023-10-31T14:54:37;10.60;99.90
52941;DHT22;62001;53.366;6.636;2023-10-31T14:57:03;10.50;99.90
52941;DHT22;62001;53.366;6.636;2023-10-31T14:59:28;10.50;99.90
52941;DHT22;62001;53.366;6.636;2023-10-31T15:01:54;10.50;99.90
52941;DHT22;62001;53.366;6.636;2023-10-31T15:04:20;10.50;99.90
52941;DHT22;62001;53.366;6.636;2023-10-31T15:06:46;10.40;99.90
52941;DHT22;62001;53.366;6.636;2023-10-31T15:09:12;10.40;99.90
52941;DHT22;62001;53.366;6.636;2023-10-31T15:11:37;10.40;99.90
52941;DHT22;62001;53.366;6.636;2023-10-31T15:14:03;10.40;99.90
52941;DHT22;62001;53.366;6.636;2023-10-31T15:16:29;10.40;99.90
52941;DHT22;62001;53.366;6.636;2023-10-31T15:18:55;10.40;99.90
52941;DHT22;62001;53.366;6.636;2023-10-31T15:21:22;10.40;99.90
52941;DHT22;62001;53.366;6.636;2023-10-31T15:23:48;10.30;99.90
52941;DHT22;62001;53.366;6.636;2023-10-31T15:26:14;10.30;99.90
52941;DHT22;62001;53.366;6.636;2023-10-31T15:28:41;10.30;99.90
52941;DHT22;62001;53.366;6.636;2023-10-31T15:31:10;10.30;99.90
52941;DHT22;62001;53.366;6.636;2023-10-31T15:33:36;10.20;99.90